Time;durP1;ratioP1;P1;durP2;ratioP2;P2;SDS_P1;SDS_P2;PMS_P1;PMS_P2;Temp;Humidity;BMP_temperature;BMP_pressure;BME280_temperature;BME280_humidity;BME280_pressure;Samples;Min_cycle;Max_cycle;Signal;HPM_P1;HPM_P2
2021/10/03 00:00:37;;;;;;;10.10;4.82;;;14.80;99.90;;;;;;5036618;28;20017;-93
2021/10/03 00:03:09;;;;;;;8.13;5.10;;;14.80;99.90;;;;;;5036451;28;20067;-93
2021/10/03 00:05:37;;;;;;;7.20;4.30;;;14.80;99.90;;;;;;5036531;28;20021;-92
2021/10/03 00:08:05;;;;;;;9.40;5.70;;;14.90;99.90;;;;;;5036349;28;20036;-92
2021/10/03 00:10:32;;;;;;;7.55;5.10;;;15.00;99.90;;;;;;5036691;28;20032;-93
2021/10/03 00:13:03;;;;;;;7.47;4.82;;;15.00;99.90;;;;;;5036440;28;20035;-91
2021/10/03 00:15:32;;;;;;;8.20;4.93;;;14.90;99.90;;;;;;5036649;28;20029;-92
2021/10/03 00:17:58;;;;;;;10.23;4.22;;;14.90;99.90;;;;;;5036395;28;20033;-93
2021/10/03 00:20:25;;;;;;;7.20;4.90;;;14.90;99.90;;;;;;5036375;28;20022;-92
2021/10/03 00:22:51;;;;;;;6.13;4.22;;;14.80;99.90;;;;;;5036296;28;20025;-93
2021/10/03 00:25:17;;;;;;;9.43;5.05;;;14.80;99.90;;;;;;5036268;28;20476;-92
2021/10/03 00:27:45;;;;;;;9.13;4.65;;;14.70;99.90;;;;;;5036471;28;20021;-92
2021/10/03 00:30:13;;;;;;;7.85;4.80;;;14.80;99.90;;;;;;5036263;28;20036;-92
2021/10/03 00:32:40;;;;;;;8.30;5.07;;;14.70;99.90;;;;;;5036089;28;20112;-93
2021/10/03 00:35:06;;;;;;;5.28;4.50;;;14.70;99.90;;;;;;5036365;28;20025;-92
2021/10/03 00:37:32;;;;;;;7.72;4.57;;;14.70;99.90;;;;;;5036086;28;20049;-92
2021/10/03 00:39:57;;;;;;;6.05;4.50;;;14.70;99.90;;;;;;5036492;28;20025;-92
2021/10/03 00:42:23;;;;;;;7.25;4.32;;;14.80;99.90;;;;;;5037087;28;20025;-92
2021/10/03 00:44:49;;;;;;;6.60;5.18;;;14.80;99.90;;;;;;5035792;28;20052;-92
2021/10/03 00:47:16;;;;;;;9.65;4.72;;;14.70;99.90;;;;;;5036160;28;20021;-93
2021/10/03 00:49:43;;;;;;;9.20;5.47;;;14.70;99.90;;;;;;5036503;28;20557;-92
2021/10/03 00:52:09;;;;;;;5.93;4.55;;;14.60;99.90;;;;;;5036024;28;20029;-93
2021/10/03 00:54:36;;;;;;;6.53;4.45;;;14.50;99.90;;;;;;5037716;28;20025;-92
2021/10/03 00:57:03;;;;;;;9.98;5.38;;;14.60;99.90;;;;;;5039918;28;20507;-93
2021/10/03 00:59:30;;;;;;;10.20;4.68;;;14.60;99.90;;;;;;5023044;28;20025;-93
2021/10/03 01:01:56;;;;;;;8.70;5.05;;;14.60;99.90;;;;;;5040287;28;20423;-92
2021/10/03 01:04:22;;;;;;;11.05;5.40;;;14.70;99.90;;;;;;5039575;28;20075;-92
2021/10/03 01:06:48;;;;;;;8.57;4.88;;;14.70;99.90;;;;;;5039521;28;20108;-92
2021/10/03 01:09:14;;;;;;;5.88;4.65;;;14.90;99.90;;;;;;5039833;28;20021;-92
2021/10/03 01:11:41;;;;;;;8.65;4.93;;;15.00;99.90;;;;;;5039646;28;20043;-92
2021/10/03 01:14:06;;;;;;;4.90;4.30;;;15.00;99.90;;;;;;5039327;28;20090;-93
2021/10/03 01:16:32;;;;;;;8.80;5.30;;;15.20;99.90;;;;;;5039610;28;20512;-93
2021/10/03 01:18:58;;;;;;;9.85;4.75;;;15.20;99.90;;;;;;5039247;28;20120;-93
2021/10/03 01:21:25;;;;;;;8.18;4.88;;;15.10;99.90;;;;;;5039219;28;20029;-92
2021/10/03 01:23:56;;;;;;;6.95;4.40;;;15.00;99.90;;;;;;5039342;28;20025;-92
2021/10/03 01:26:21;;;;;;;10.70;4.60;;;15.00;99.90;;;;;;5056803;28;20087;-92
2021/10/03 01:28:48;;;;;;;5.38;3.63;;;15.00;99.90;;;;;;5039185;28;20029;-92
2021/10/03 01:31:14;;;;;;;6.45;3.75;;;15.20;99.90;;;;;;5038960;28;20048;-91
2021/10/03 01:33:40;;;;;;;4.63;3.15;;;15.30;99.90;;;;;;5039230;28;20419;-92
2021/10/03 01:36:09;;;;;;;5.60;3.45;;;15.50;99.90;;;;;;5038833;28;20036;-91
2021/10/03 01:38:35;;;;;;;7.60;3.78;;;15.70;99.90;;;;;;5038710;28;20450;-92
2021/10/03 01:41:02;;;;;;;5.32;3.22;;;15.80;99.90;;;;;;5038914;28;20388;-92
2021/10/03 01:43:28;;;;;;;7.50;3.38;;;15.80;99.90;;;;;;5042438;28;20492;-91
2021/10/03 01:45:54;;;;;;;4.40;3.00;;;15.90;99.90;;;;;;5044377;28;20060;-91
2021/10/03 01:48:22;;;;;;;3.45;2.60;;;16.00;99.90;;;;;;5048337;28;20025;-92
2021/10/03 01:51:01;;;;;;;5.15;3.20;;;16.10;99.90;;;;;;5056012;28;20017;-92
2021/10/03 01:53:34;;;;;;;4.80;2.97;;;16.10;99.90;;;;;;5046023;28;20025;-91
2021/10/03 01:56:01;;;;;;;5.82;3.28;;;16.10;99.90;;;;;;5040573;28;20075;-91
2021/10/03 01:58:32;;;;;;;6.78;3.17;;;16.10;99.90;;;;;;5038875;28;20021;-92
2021/10/03 02:01:11;;;;;;;3.67;3.17;;;16.20;99.90;;;;;;5038672;28;20431;-91
2021/10/03 02:03:37;;;;;;;5.53;3.00;;;16.10;99.90;;;;;;5038976;28;20028;-92
2021/10/03 02:06:03;;;;;;;4.32;3.20;;;16.20;99.90;;;;;;5037704;28;20025;-91
2021/10/03 02:08:28;;;;;;;4.80;3.45;;;16.20;99.90;;;;;;5038965;28;20075;-91
2021/10/03 02:10:54;;;;;;;4.85;3.45;;;16.00;99.90;;;;;;5021878;28;20511;-91
2021/10/03 02:13:23;;;;;;;5.20;3.45;;;16.00;99.90;;;;;;5038087;28;20112;-92
2021/10/03 02:15:50;;;;;;;5.35;3.75;;;16.00;99.90;;;;;;5038111;28;20033;-91
2021/10/03 02:18:18;;;;;;;4.88;3.50;;;16.00;99.90;;;;;;5038119;28;20021;-91
2021/10/03 02:20:46;;;;;;;4.80;3.55;;;16.00;99.90;;;;;;5038170;28;20430;-92
2021/10/03 02:23:13;;;;;;;6.55;3.70;;;15.80;99.90;;;;;;5038039;28;20017;-91
2021/10/03 02:25:47;;;;;;;7.15;3.53;;;15.70;99.90;;;;;;5037926;28;20071;-91
2021/10/03 02:28:16;;;;;;;4.25;3.42;;;15.50;99.90;;;;;;5037940;28;20079;-92
2021/10/03 02:30:43;;;;;;;4.32;3.85;;;15.40;99.90;;;;;;5037852;28;20393;-92
2021/10/03 02:33:10;;;;;;;5.60;3.40;;;15.50;99.90;;;;;;5037834;28;20021;-91
2021/10/03 02:35:38;;;;;;;5.78;3.85;;;15.40;99.90;;;;;;5037911;28;20408;-91
2021/10/03 02:38:05;;;;;;;7.13;4.00;;;15.40;99.90;;;;;;5037755;28;20424;-92
2021/10/03 02:40:32;;;;;;;4.45;3.33;;;15.40;99.90;;;;;;5038254;28;20044;-92
2021/10/03 02:43:00;;;;;;;4.85;3.78;;;15.40;99.90;;;;;;5037356;28;20034;-92
2021/10/03 02:45:27;;;;;;;5.90;3.67;;;15.40;99.90;;;;;;5055338;28;20025;-92
2021/10/03 02:47:53;;;;;;;5.20;3.60;;;15.30;99.90;;;;;;5037805;28;20025;-92
2021/10/03 02:50:19;;;;;;;6.80;3.60;;;15.20;99.90;;;;;;5037527;28;20021;-91
2021/10/03 02:52:44;;;;;;;5.85;3.72;;;15.30;99.90;;;;;;5037129;28;20383;-92
2021/10/03 02:55:10;;;;;;;6.68;3.70;;;15.20;99.90;;;;;;5037648;28;20017;-92
2021/10/03 02:57:36;;;;;;;6.05;3.40;;;15.20;99.90;;;;;;5037189;28;20370;-91
2021/10/03 03:00:05;;;;;;;5.43;3.50;;;15.30;99.90;;;;;;5037217;28;20021;-92
2021/10/03 03:02:31;;;;;;;5.82;3.65;;;15.20;99.90;;;;;;5037799;28;20472;-92
2021/10/03 03:04:56;;;;;;;7.07;3.83;;;15.00;99.90;;;;;;5037216;28;20059;-92
2021/10/03 03:07:22;;;;;;;4.78;3.40;;;15.00;99.90;;;;;;5054953;28;20096;-92
2021/10/03 03:09:48;;;;;;;4.82;3.75;;;14.90;99.90;;;;;;5037517;28;20025;-92
2021/10/03 03:12:14;;;;;;;5.75;4.00;;;15.00;99.90;;;;;;5037606;28;20056;-92
2021/10/03 03:14:39;;;;;;;6.43;3.75;;;15.00;99.90;;;;;;5037485;28;20548;-92
2021/10/03 03:17:17;;;;;;;5.45;3.70;;;14.90;99.90;;;;;;5037311;28;20387;-92
2021/10/03 03:19:43;;;;;;;5.45;3.47;;;14.80;99.90;;;;;;5037168;28;20394;-92
2021/10/03 03:22:13;;;;;;;3.92;3.53;;;14.80;99.90;;;;;;5037172;28;20112;-93
2021/10/03 03:24:40;;;;;;;4.78;3.47;;;14.80;99.90;;;;;;5036969;28;20052;-92
2021/10/03 03:27:07;;;;;;;5.78;3.42;;;14.80;99.90;;;;;;5036968;28;20025;-92
2021/10/03 03:29:33;;;;;;;4.60;3.30;;;14.80;99.90;;;;;;5037097;28;20127;-92
2021/10/03 03:32:00;;;;;;;8.40;3.30;;;14.60;99.90;;;;;;5036774;28;20032;-92
2021/10/03 03:34:26;;;;;;;4.40;3.50;;;14.40;99.90;;;;;;5037140;28;20108;-92
2021/10/03 03:36:52;;;;;;;4.00;3.40;;;14.40;99.90;;;;;;5037129;28;20112;-92
2021/10/03 03:39:17;;;;;;;5.30;3.50;;;14.40;99.90;;;;;;5036704;28;20107;-92
2021/10/03 03:41:43;;;;;;;5.85;3.28;;;14.40;99.90;;;;;;5036910;28;20403;-93
2021/10/03 03:44:09;;;;;;;3.63;2.95;;;14.20;99.90;;;;;;5036540;28;20044;-92
2021/10/03 03:46:35;;;;;;;5.60;3.30;;;14.20;99.90;;;;;;5036726;28;20052;-92
2021/10/03 03:49:01;;;;;;;5.57;3.60;;;14.20;99.90;;;;;;5036562;28;20029;-92
2021/10/03 03:51:26;;;;;;;6.43;3.05;;;14.30;99.90;;;;;;5037230;28;20567;-92
2021/10/03 03:53:52;;;;;;;8.70;3.38;;;14.30;99.90;;;;;;5036467;28;20056;-92
2021/10/03 03:56:18;;;;;;;8.63;2.90;;;14.40;99.90;;;;;;5039305;28;20116;-92
2021/10/03 03:58:44;;;;;;;4.22;3.08;;;14.40;99.90;;;;;;5041322;28;20025;-92
2021/10/03 04:01:09;;;;;;;4.60;3.03;;;14.30;99.90;;;;;;5045093;28;20021;-92
2021/10/03 04:03:36;;;;;;;4.68;2.90;;;14.50;99.90;;;;;;5051761;28;20025;-92
2021/10/03 04:06:02;;;;;;;4.35;3.05;;;14.50;99.90;;;;;;5046667;28;20112;-91
2021/10/03 04:08:28;;;;;;;7.40;3.03;;;14.60;99.90;;;;;;5056827;28;20060;-92
2021/10/03 04:10:54;;;;;;;5.68;3.15;;;14.60;99.90;;;;;;5038621;28;20025;-92
2021/10/03 04:13:20;;;;;;;8.95;3.35;;;14.50;99.90;;;;;;5037184;28;20115;-92
2021/10/03 04:15:46;;;;;;;8.82;2.95;;;14.40;99.90;;;;;;5053992;28;20025;-92
2021/10/03 04:18:13;;;;;;;5.82;3.03;;;14.30;99.90;;;;;;5036944;28;20032;-92
2021/10/03 04:20:39;;;;;;;7.93;3.03;;;14.50;99.90;;;;;;5020317;28;20029;-92
2021/10/03 04:23:05;;;;;;;4.40;2.90;;;14.50;99.90;;;;;;5036251;28;20388;-92
2021/10/03 04:25:31;;;;;;;4.82;3.05;;;14.60;99.90;;;;;;5036107;28;20024;-92
2021/10/03 04:27:57;;;;;;;5.38;2.97;;;14.60;99.90;;;;;;5036498;28;20029;-92
2021/10/03 04:30:23;;;;;;;3.92;3.00;;;14.60;99.90;;;;;;5039128;28;20017;-92
2021/10/03 04:32:48;;;;;;;7.85;3.00;;;14.60;99.90;;;;;;5041121;28;20102;-92
2021/10/03 04:35:14;;;;;;;3.85;3.10;;;14.50;99.90;;;;;;5040296;28;20032;-92
2021/10/03 04:37:40;;;;;;;5.30;2.90;;;14.50;99.90;;;;;;5040066;28;20032;-93
2021/10/03 04:40:07;;;;;;;4.50;3.20;;;14.30;99.90;;;;;;5039984;28;20025;-92
2021/10/03 04:42:33;;;;;;;5.35;3.20;;;14.30;99.90;;;;;;5040493;28;20484;-92
2021/10/03 04:44:59;;;;;;;3.97;2.80;;;14.20;99.90;;;;;;5040167;28;20044;-93
2021/10/03 04:47:25;;;;;;;6.88;2.80;;;14.30;99.90;;;;;;5039898;28;20063;-92
2021/10/03 04:49:53;;;;;;;3.88;2.80;;;14.30;99.90;;;;;;5039881;28;20075;-92
2021/10/03 04:52:25;;;;;;;3.88;2.58;;;14.30;99.90;;;;;;5039843;28;20025;-92
2021/10/03 04:54:51;;;;;;;5.85;3.15;;;14.50;99.90;;;;;;5040083;28;20028;-93
2021/10/03 04:57:17;;;;;;;5.13;3.13;;;14.40;99.90;;;;;;5040054;28;20032;-92
2021/10/03 04:59:43;;;;;;;8.38;3.38;;;14.40;99.90;;;;;;5039920;28;20025;-92
2021/10/03 05:02:10;;;;;;;6.53;3.38;;;14.50;99.90;;;;;;5040094;28;20032;-90
2021/10/03 05:04:36;;;;;;;6.63;3.28;;;14.40;99.90;;;;;;5023678;28;20053;-92
2021/10/03 05:07:02;;;;;;;3.95;2.88;;;14.40;99.90;;;;;;5039812;28;20028;-92
2021/10/03 05:09:27;;;;;;;4.72;3.03;;;14.50;99.90;;;;;;5039932;28;20055;-92
2021/10/03 05:11:53;;;;;;;5.00;3.15;;;14.40;99.90;;;;;;5039577;28;20025;-92
2021/10/03 05:14:19;;;;;;;5.85;3.33;;;14.30;99.90;;;;;;5039430;28;20105;-91
2021/10/03 05:16:45;;;;;;;4.47;3.45;;;14.30;99.90;;;;;;5039639;28;20065;-91
2021/10/03 05:19:11;;;;;;;7.25;3.05;;;14.30;99.90;;;;;;5039244;28;20049;-92
2021/10/03 05:21:37;;;;;;;7.43;3.80;;;14.30;99.90;;;;;;5039653;28;20028;-92
2021/10/03 05:24:03;;;;;;;7.32;3.03;;;14.30;99.90;;;;;;5039580;28;20472;-92
2021/10/03 05:26:29;;;;;;;4.15;2.72;;;14.10;99.90;;;;;;5039364;28;20033;-92
2021/10/03 05:28:54;;;;;;;6.15;3.05;;;14.30;99.90;;;;;;5056989;28;20025;-91
2021/10/03 05:31:20;;;;;;;4.78;2.92;;;14.30;99.90;;;;;;5039202;28;20032;-91
2021/10/03 05:33:47;;;;;;;8.55;3.38;;;14.40;99.90;;;;;;5038917;28;20083;-91
2021/10/03 05:36:12;;;;;;;3.90;3.00;;;14.50;99.90;;;;;;5038929;28;20036;-92
2021/10/03 05:38:38;;;;;;;4.50;2.88;;;14.40;99.90;;;;;;5056429;28;20020;-91
2021/10/03 05:41:04;;;;;;;6.50;2.92;;;14.50;99.90;;;;;;5037591;28;20051;-91
2021/10/03 05:43:30;;;;;;;4.30;3.05;;;14.40;99.90;;;;;;5038442;28;20041;-92
2021/10/03 05:45:56;;;;;;;6.20;3.20;;;14.50;99.90;;;;;;5039379;28;20024;-91
2021/10/03 05:48:21;;;;;;;7.57;3.15;;;14.30;99.90;;;;;;5038802;28;20032;-92
2021/10/03 05:50:48;;;;;;;5.90;3.10;;;14.60;99.90;;;;;;5039281;28;20035;-91
2021/10/03 05:53:14;;;;;;;5.15;3.50;;;14.50;99.90;;;;;;5038584;28;20029;-91
2021/10/03 05:55:40;;;;;;;6.05;3.15;;;14.50;99.90;;;;;;5038307;28;20028;-92
2021/10/03 05:58:05;;;;;;;3.75;3.08;;;14.40;99.90;;;;;;5038542;28;20021;-91
2021/10/03 06:00:31;;;;;;;3.72;3.08;;;14.20;99.90;;;;;;5038339;28;20032;-91
2021/10/03 06:02:57;;;;;;;5.75;3.03;;;14.50;99.90;;;;;;5038471;28;20028;-92
2021/10/03 06:05:23;;;;;;;4.43;3.17;;;14.50;99.90;;;;;;5056202;28;20021;-91
2021/10/03 06:07:49;;;;;;;4.38;3.28;;;14.50;99.90;;;;;;5038745;28;20063;-91
2021/10/03 06:10:15;;;;;;;4.13;3.00;;;14.50;99.90;;;;;;5043005;28;20453;-92
2021/10/03 06:12:41;;;;;;;4.10;3.00;;;14.60;99.90;;;;;;5044203;28;20052;-92
2021/10/03 06:15:09;;;;;;;5.43;3.30;;;14.50;99.90;;;;;;5049573;28;20025;-91
2021/10/03 06:17:35;;;;;;;7.15;3.13;;;14.60;99.90;;;;;;5054982;28;20033;-92
2021/10/03 06:20:03;;;;;;;5.15;3.28;;;14.70;99.90;;;;;;5046573;28;20017;-92
2021/10/03 06:22:29;;;;;;;4.18;2.90;;;14.70;99.90;;;;;;5039686;28;20028;-91
2021/10/03 06:24:55;;;;;;;6.65;3.42;;;14.80;99.90;;;;;;5038781;28;20480;-91
2021/10/03 06:27:21;;;;;;;5.10;3.00;;;14.90;99.90;;;;;;5038265;28;20033;-92
2021/10/03 06:29:47;;;;;;;6.25;2.97;;;15.00;99.90;;;;;;5038213;28;20025;-92
2021/10/03 06:32:12;;;;;;;8.10;3.38;;;15.00;99.90;;;;;;5038077;28;20029;-92
2021/10/03 06:34:38;;;;;;;7.13;3.35;;;14.90;99.90;;;;;;5038172;28;20029;-91
2021/10/03 06:37:04;;;;;;;5.20;3.28;;;14.90;99.90;;;;;;5037731;28;20025;-91
2021/10/03 06:39:30;;;;;;;7.55;3.30;;;15.00;99.90;;;;;;5037721;28;20115;-91
2021/10/03 06:41:55;;;;;;;5.68;3.05;;;15.20;99.90;;;;;;5037749;28;20485;-92
2021/10/03 06:44:21;;;;;;;6.35;3.05;;;15.30;99.90;;;;;;5021600;28;20115;-91
2021/10/03 06:46:47;;;;;;;3.78;2.70;;;15.30;99.90;;;;;;5014363;28;20036;-91
2021/10/03 06:49:13;;;;;;;4.88;3.35;;;15.50;99.90;;;;;;5014611;28;20037;-92
2021/10/03 06:51:42;;;;;;;5.07;3.20;;;15.40;99.90;;;;;;5014548;28;20029;-92
2021/10/03 06:54:09;;;;;;;4.25;3.03;;;15.40;99.90;;;;;;5015331;28;20392;-91
2021/10/03 06:56:36;;;;;;;5.10;3.08;;;15.50;99.90;;;;;;5014269;28;20030;-91
2021/10/03 06:59:02;;;;;;;4.53;3.28;;;15.40;99.90;;;;;;5014335;28;20080;-91
2021/10/03 07:01:28;;;;;;;6.43;3.50;;;15.50;99.90;;;;;;5015185;28;20049;-91
2021/10/03 07:03:54;;;;;;;5.10;3.13;;;15.40;99.90;;;;;;5014356;28;20473;-92
2021/10/03 07:06:20;;;;;;;4.45;3.13;;;15.70;99.90;;;;;;5015236;28;20472;-92
2021/10/03 07:08:46;;;;;;;3.58;2.92;;;15.80;99.90;;;;;;5014642;28;20022;-93
2021/10/03 07:11:12;;;;;;;5.65;3.13;;;15.90;99.90;;;;;;5014923;28;20026;-93
2021/10/03 07:13:38;;;;;;;4.30;3.30;;;16.00;99.90;;;;;;5015014;28;20057;-92
2021/10/03 07:16:04;;;;;;;6.50;3.28;;;16.10;99.90;;;;;;5014269;28;20026;-92
2021/10/03 07:18:30;;;;;;;4.40;2.97;;;16.00;99.90;;;;;;5015339;28;20401;-92
2021/10/03 07:20:56;;;;;;;3.75;2.95;;;16.20;99.90;;;;;;5014523;28;20077;-93
2021/10/03 07:23:21;;;;;;;7.18;3.80;;;16.30;99.90;;;;;;5014069;28;20026;-92
2021/10/03 07:25:48;;;;;;;9.77;5.38;;;16.30;99.90;;;;;;5014206;28;20108;-92
2021/10/03 07:28:13;;;;;;;6.45;4.07;;;16.40;99.90;;;;;;5014430;28;20041;-92
2021/10/03 07:30:39;;;;;;;5.97;3.90;;;16.50;99.90;;;;;;5014252;28;20026;-93
2021/10/03 07:33:05;;;;;;;5.55;3.85;;;16.60;99.90;;;;;;5014230;28;20029;-92
2021/10/03 07:35:31;;;;;;;12.63;7.82;;;16.60;99.90;;;;;;5015003;28;20022;-92
2021/10/03 07:37:57;;;;;;;4.40;3.22;;;16.50;99.90;;;;;;5015721;28;20038;-93
2021/10/03 07:40:23;;;;;;;4.57;3.13;;;16.70;99.90;;;;;;5014908;28;20032;-93
2021/10/03 07:42:49;;;;;;;6.28;3.00;;;16.80;99.90;;;;;;5015558;28;20381;-92
2021/10/03 07:45:15;;;;;;;3.50;2.90;;;16.90;99.90;;;;;;5036899;28;20036;-93
2021/10/03 07:47:41;;;;;;;6.57;3.97;;;17.00;99.90;;;;;;5036845;28;20024;-92
2021/10/03 07:50:07;;;;;;;6.68;3.03;;;17.20;99.90;;;;;;5036955;28;20472;-92
2021/10/03 07:52:33;;;;;;;5.65;3.28;;;17.20;99.90;;;;;;5054239;28;20048;-93
2021/10/03 07:54:59;;;;;;;6.00;3.45;;;17.20;99.90;;;;;;5036807;28;20480;-93
2021/10/03 07:57:26;;;;;;;5.13;3.33;;;17.40;99.90;;;;;;5036891;28;20033;-92
2021/10/03 07:59:51;;;;;;;6.97;3.00;;;17.50;99.90;;;;;;5036867;28;20473;-93
2021/10/03 08:02:17;;;;;;;6.40;3.92;;;17.60;99.90;;;;;;5037610;28;20116;-92
2021/10/03 08:04:43;;;;;;;5.38;2.30;;;17.80;99.90;;;;;;5036068;28;20021;-91
2021/10/03 08:07:09;;;;;;;4.78;2.90;;;17.80;99.90;;;;;;5036692;28;20541;-92
2021/10/03 08:09:34;;;;;;;5.03;2.63;;;18.00;99.90;;;;;;5036239;28;20051;-91
2021/10/03 08:12:00;;;;;;;3.55;2.65;;;18.10;99.90;;;;;;5036498;28;20476;-92
2021/10/03 08:14:26;;;;;;;4.82;2.67;;;18.20;99.90;;;;;;5037557;28;20396;-93
2021/10/03 08:16:52;;;;;;;5.25;3.28;;;18.30;99.90;;;;;;5036732;28;20028;-93
2021/10/03 08:19:18;;;;;;;5.63;2.65;;;18.30;99.90;;;;;;5037557;28;20021;-91
2021/10/03 08:21:44;;;;;;;4.13;2.50;;;18.20;99.90;;;;;;5040997;28;20079;-93
2021/10/03 08:24:09;;;;;;;9.27;2.80;;;18.30;99.90;;;;;;5056348;28;20025;-92
2021/10/03 08:26:35;;;;;;;4.75;2.60;;;18.30;99.90;;;;;;5052107;28;20025;-92
2021/10/03 08:29:01;;;;;;;3.85;2.40;;;18.40;99.90;;;;;;5053287;28;20044;-93
2021/10/03 08:31:28;;;;;;;4.70;2.85;;;18.40;99.90;;;;;;5052496;28;20025;-92
2021/10/03 08:33:54;;;;;;;4.88;2.45;;;18.50;99.90;;;;;;5039134;28;20112;-90
2021/10/03 08:36:19;;;;;;;3.63;3.03;;;18.60;99.90;;;;;;5040728;28;20029;-92
2021/10/03 08:38:45;;;;;;;6.40;2.40;;;18.60;99.90;;;;;;5039160;28;20021;-89
2021/10/03 08:41:11;;;;;;;6.20;2.40;;;18.60;99.90;;;;;;5038624;28;20049;-88
2021/10/03 08:43:37;;;;;;;3.67;2.53;;;18.70;99.90;;;;;;5057202;28;20109;-92
2021/10/03 08:46:05;;;;;;;3.72;2.88;;;18.60;99.90;;;;;;5041889;28;20025;-93
2021/10/03 08:48:31;;;;;;;3.75;2.28;;;18.50;99.90;;;;;;5037356;28;20175;-93
2021/10/03 08:50:57;;;;;;;3.28;2.33;;;18.50;99.90;;;;;;5038212;28;20052;-91
2021/10/03 08:53:22;;;;;;;5.80;2.70;;;18.40;99.90;;;;;;5037416;28;20036;-93
2021/10/03 08:55:50;;;;;;;3.17;2.30;;;18.40;99.90;;;;;;5038441;28;20032;-93
2021/10/03 08:58:15;;;;;;;2.72;2.28;;;18.40;99.90;;;;;;5055834;28;20043;-93
2021/10/03 09:00:47;;;;;;;9.18;2.60;;;18.40;99.90;;;;;;5040042;28;20365;-93
2021/10/03 09:03:15;;;;;;;3.83;2.67;;;18.40;99.90;;;;;;5040202;28;20021;-93
2021/10/03 09:05:47;;;;;;;2.90;2.40;;;18.40;99.90;;;;;;5036997;28;20048;-92
2021/10/03 09:08:16;;;;;;;3.00;2.30;;;18.40;99.90;;;;;;5037386;28;20457;-93
2021/10/03 09:11:06;;;;;;;5.88;2.53;;;18.50;99.90;;;;;;5037081;28;20029;-92
2021/10/03 09:13:31;;;;;;;3.20;2.55;;;18.40;99.90;;;;;;5037619;28;20028;-92
2021/10/03 09:16:20;;;;;;;4.25;2.38;;;18.40;99.90;;;;;;5040438;28;20037;-93
2021/10/03 09:18:52;;;;;;;4.25;3.63;;;18.40;99.90;;;;;;5060318;28;20040;-93
2021/10/03 09:21:30;;;;;;;5.53;3.97;;;18.30;99.90;;;;;;5041618;28;20567;-92
2021/10/03 09:24:05;;;;;;;8.52;3.72;;;18.40;99.90;;;;;;5040041;28;20017;-92
2021/10/03 09:26:32;;;;;;;8.18;4.10;;;18.50;99.90;;;;;;5039898;28;20503;-92
2021/10/03 09:28:58;;;;;;;3.72;2.40;;;18.50;99.90;;;;;;5039732;28;20446;-92
2021/10/03 09:31:24;;;;;;;7.05;3.25;;;18.50;99.90;;;;;;5040136;28;20515;-91
2021/10/03 09:33:56;;;;;;;7.78;4.50;;;18.50;99.90;;;;;;5040309;28;20056;-92
2021/10/03 09:36:30;;;;;;;7.95;3.03;;;18.60;99.90;;;;;;5039817;28;20476;-92
2021/10/03 09:39:05;;;;;;;4.25;2.60;;;18.50;99.90;;;;;;5040800;28;20025;-93
2021/10/03 09:41:31;;;;;;;;;;;18.60;99.90;;;;;;5040079;28;20484;-93
2021/10/03 09:44:07;;;;;;;4.65;3.30;;;18.60;99.90;;;;;;5039183;28;19959;-93
2021/10/03 09:46:41;;;;;;;4.70;2.67;;;18.60;99.90;;;;;;5039811;28;20051;-93
2021/10/03 09:49:14;;;;;;;6.25;3.13;;;18.50;99.90;;;;;;5039887;28;20029;-92
2021/10/03 09:51:49;;;;;;;6.38;2.90;;;18.60;99.90;;;;;;5039740;28;20059;-93
2021/10/03 09:54:17;;;;;;;6.93;2.80;;;18.60;99.90;;;;;;5045137;28;20456;-93
2021/10/03 09:56:43;;;;;;;5.93;2.75;;;18.70;99.90;;;;;;5041166;28;20025;-93
2021/10/03 09:59:10;;;;;;;8.35;3.33;;;18.80;99.90;;;;;;5041204;28;20027;-93
2021/10/03 10:01:38;;;;;;;3.58;2.60;;;18.90;99.90;;;;;;5045690;28;20075;-93
2021/10/03 10:04:08;;;;;;;7.35;3.17;;;19.00;99.90;;;;;;5041840;28;20056;-92
2021/10/03 10:06:35;;;;;;;4.38;3.05;;;19.10;99.90;;;;;;5043732;28;20024;-93
2021/10/03 10:09:22;;;;;;;5.47;3.40;;;19.10;99.90;;;;;;5042952;28;20025;-93
2021/10/03 10:11:55;;;;;;;6.45;2.90;;;19.10;99.90;;;;;;5044375;28;20549;-93
2021/10/03 10:14:36;;;;;;;7.53;3.20;;;19.10;99.90;;;;;;5049037;28;20457;-93
2021/10/03 10:17:29;;;;;;;5.32;3.03;;;19.10;99.90;;;;;;5045299;28;20040;-92
2021/10/03 10:19:59;;;;;;;3.03;2.30;;;19.20;99.90;;;;;;5045304;28;20395;-93
2021/10/03 10:22:28;;;;;;;4.25;2.97;;;19.30;99.90;;;;;;5041603;28;20025;-93
2021/10/03 10:24:56;;;;;;;3.88;2.67;;;19.30;99.90;;;;;;5042638;28;20065;-93
2021/10/03 10:27:21;;;;;;;3.20;2.55;;;19.40;99.90;;;;;;5040656;28;20025;-93
2021/10/03 10:30:00;;;;;;;6.80;2.65;;;19.50;99.90;;;;;;5040719;28;20028;-93
2021/10/03 10:32:28;;;;;;;5.03;2.55;;;19.50;99.90;;;;;;5040903;28;20480;-92
2021/10/03 10:35:12;;;;;;;7.25;2.63;;;19.60;99.90;;;;;;5045539;28;20032;-92
2021/10/03 10:38:00;;;;;;;4.20;2.58;;;19.60;99.90;;;;;;5050126;28;20027;-93
2021/10/03 10:40:32;;;;;;;3.53;2.70;;;19.60;99.90;;;;;;5039411;28;20096;-93
2021/10/03 10:43:26;;;;;;;4.10;2.50;;;19.50;99.90;;;;;;5060026;28;20025;-92
2021/10/03 10:45:51;;;;;;;8.68;2.50;;;19.60;99.90;;;;;;5047272;28;20105;-92
2021/10/03 10:48:18;;;;;;;4.72;2.60;;;19.60;99.90;;;;;;5044190;28;20020;-93
2021/10/03 10:50:44;;;;;;;3.97;2.65;;;19.70;99.90;;;;;;5046348;28;20472;-92
2021/10/03 10:53:21;;;;;;;3.70;2.40;;;19.70;99.90;;;;;;5046164;28;20013;-91
2021/10/03 10:56:24;;;;;;;3.45;2.60;;;19.70;99.90;;;;;;5041275;28;20484;-92
2021/10/03 10:58:53;;;;;;;4.38;2.40;;;19.60;99.90;;;;;;5044131;28;20021;-93
2021/10/03 11:01:35;;;;;;;5.93;2.30;;;19.60;99.90;;;;;;5047625;28;20533;-93
2021/10/03 11:04:23;;;;;;;3.65;2.08;;;19.50;99.90;;;;;;5043386;28;20067;-91
2021/10/03 11:06:48;;;;;;;4.10;2.30;;;19.60;99.90;;;;;;5045476;28;20033;-93
2021/10/03 11:09:16;;;;;;;2.95;2.58;;;19.70;99.90;;;;;;5042600;28;20075;-93
2021/10/03 11:11:54;;;;;;;3.60;2.28;;;19.90;99.90;;;;;;5040816;28;20032;-92
2021/10/03 11:14:21;;;;;;;2.70;2.08;;;20.00;99.90;;;;;;5040258;28;20021;-91
2021/10/03 11:17:02;;;;;;;4.93;2.78;;;20.10;99.90;;;;;;5038899;28;20040;-93
2021/10/03 11:19:33;;;;;;;7.03;4.25;;;20.20;99.90;;;;;;5040732;28;20025;-92
2021/10/03 11:22:07;;;;;;;7.63;5.80;;;20.20;99.90;;;;;;5042598;28;20392;-93
2021/10/03 11:24:43;;;;;;;4.45;2.72;;;20.20;99.90;;;;;;5059866;28;20549;-94
2021/10/03 11:27:13;;;;;;;6.15;2.75;;;20.20;99.90;;;;;;5041239;28;20048;-92
2021/10/03 11:29:45;;;;;;;4.05;2.28;;;20.30;99.90;;;;;;5042111;28;20039;-93
2021/10/03 11:32:17;;;;;;;3.03;2.20;;;20.30;99.90;;;;;;5041642;28;20023;-93
2021/10/03 11:34:46;;;;;;;3.85;2.30;;;20.40;99.90;;;;;;5041536;28;20031;-93
2021/10/03 11:37:23;;;;;;;2.72;1.83;;;20.40;99.90;;;;;;5040389;28;20052;-93
2021/10/03 11:39:56;;;;;;;8.23;5.18;;;20.30;99.90;;;;;;5038928;28;20036;-93
2021/10/03 11:42:41;;;;;;;4.50;2.07;;;20.30;99.90;;;;;;5040562;28;20025;-93
2021/10/03 11:45:08;;;;;;;;;;;20.40;99.90;;;;;;5040317;28;20284;-93
2021/10/03 11:47:44;;;;;;;3.55;2.70;;;20.40;99.90;;;;;;5041957;28;19909;-93
2021/10/03 11:50:15;;;;;;;3.38;2.25;;;20.50;99.90;;;;;;5039466;28;20056;-92
2021/10/03 11:52:41;;;;;;;10.00;4.00;;;20.70;99.90;;;;;;5037042;28;20021;-93
2021/10/03 11:55:12;;;;;;;4.90;2.20;;;20.90;99.90;;;;;;5037712;28;20029;-94
2021/10/03 11:57:40;;;;;;;4.80;2.28;;;21.10;99.90;;;;;;5037323;28;20541;-92
2021/10/03 12:00:12;;;;;;;4.10;2.05;;;21.10;99.90;;;;;;5037202;28;20449;-94
2021/10/03 12:02:42;;;;;;;2.95;2.10;;;21.20;99.90;;;;;;5036856;28;20028;-92
2021/10/03 12:05:10;;;;;;;6.03;1.95;;;21.20;99.90;;;;;;5037068;28;20446;-93
2021/10/03 12:07:36;;;;;;;3.80;1.90;;;21.30;99.90;;;;;;5054488;28;20059;-92
2021/10/03 12:10:14;;;;;;;3.75;2.42;;;21.30;99.90;;;;;;5036348;28;20040;-94
2021/10/03 12:12:53;;;;;;;3.88;2.00;;;21.50;99.90;;;;;;5054343;28;20020;-93
2021/10/03 12:15:38;;;;;;;3.58;2.00;;;21.50;99.90;;;;;;5036903;28;20476;-92
2021/10/03 12:18:05;;;;;;;4.95;2.63;;;21.50;99.90;;;;;;5037022;28;20029;-93
2021/10/03 12:20:51;;;;;;;4.55;3.58;;;21.90;99.90;;;;;;5036561;28;20017;-93
2021/10/03 12:23:20;;;;;;;5.30;2.45;;;22.20;99.90;;;;;;5054129;28;20021;-92
2021/10/03 12:25:47;;;;;;;6.65;2.10;;;22.20;99.90;;;;;;5036452;28;20049;-92
2021/10/03 12:28:13;;;;;;;2.95;2.03;;;22.30;99.90;;;;;;5036554;28;20025;-93
2021/10/03 12:30:53;;;;;;;3.35;2.10;;;22.30;99.90;;;;;;5036962;28;20506;-93
2021/10/03 12:33:21;;;;;;;5.03;2.00;;;22.30;99.90;;;;;;5036606;28;20067;-92
2021/10/03 12:36:05;;;;;;;2.08;1.73;;;22.40;99.90;;;;;;5036583;28;20029;-93
2021/10/03 12:38:31;;;;;;;3.95;1.92;;;22.40;99.90;;;;;;5036495;28;20032;-93
2021/10/03 12:40:57;;;;;;;4.93;2.05;;;22.10;99.90;;;;;;5036699;28;20484;-93
2021/10/03 12:43:25;;;;;;;4.53;2.00;;;21.90;99.90;;;;;;5028869;28;20041;-93
2021/10/03 12:45:51;;;;;;;3.60;2.03;;;21.70;99.90;;;;;;5021204;28;20022;-93
2021/10/03 12:48:18;;;;;;;3.60;2.15;;;21.60;99.90;;;;;;5025696;28;20500;-92
2021/10/03 12:50:45;;;;;;;4.00;1.80;;;21.50;99.90;;;;;;5029997;28;20022;-92
2021/10/03 12:53:11;;;;;;;5.00;2.17;;;21.30;99.90;;;;;;5039144;28;20074;-93